sensor_id;sensor_type;location;lat;lon;timestamp;pressure;altitude;pressure_sealevel;temperature;humidity
71573;BME280;59408;51.032;9.410;2022-08-03T00:01:22;99110.69;;;15.40;81.74
71573;BME280;59408;51.032;9.410;2022-08-03T00:03:48;99105.94;;;15.37;81.72
71573;BME280;59408;51.032;9.410;2022-08-03T00:06:16;99106.31;;;15.35;80.59
71573;BME280;59408;51.032;9.410;2022-08-03T00:08:43;99109.34;;;15.30;80.62
71573;BME280;59408;51.032;9.410;2022-08-03T00:11:09;99104.63;;;15.27;79.55
71573;BME280;59408;51.032;9.410;2022-08-03T00:13:36;99115.97;;;15.26;79.32
71573;BME280;59408;51.032;9.410;2022-08-03T00:16:03;99107.25;;;15.20;80.10
71573;BME280;59408;51.032;9.410;2022-08-03T00:18:30;99113.84;;;15.16;80.64
71573;BME280;59408;51.032;9.410;2022-08-03T00:20:56;99115.34;;;15.13;81.19
71573;BME280;59408;51.032;9.410;2022-08-03T00:23:24;99109.03;;;15.09;81.77
71573;BME280;59408;51.032;9.410;2022-08-03T00:25:57;99112.06;;;15.04;81.81
71573;BME280;59408;51.032;9.410;2022-08-03T00:28:23;99109.28;;;15.00;81.51
71573;BME280;59408;51.032;9.410;2022-08-03T00:30:52;99108.84;;;14.98;81.58
71573;BME280;59408;51.032;9.410;2022-08-03T00:33:19;99112.66;;;14.94;81.86
71573;BME280;59408;51.032;9.410;2022-08-03T00:35:47;99110.31;;;14.92;83.09
71573;BME280;59408;51.032;9.410;2022-08-03T00:38:16;99105.81;;;14.84;83.34
71573;BME280;59408;51.032;9.410;2022-08-03T00:40:45;99104.19;;;14.80;82.98
71573;BME280;59408;51.032;9.410;2022-08-03T00:43:12;99106.50;;;14.78;83.52
71573;BME280;59408;51.032;9.410;2022-08-03T00:45:40;99115.88;;;14.77;82.91
71573;BME280;59408;51.032;9.410;2022-08-03T00:48:09;99105.25;;;14.75;83.65
71573;BME280;59408;51.032;9.410;2022-08-03T00:50:56;99104.88;;;14.73;82.57
71573;BME280;59408;51.032;9.410;2022-08-03T00:53:23;99096.97;;;14.71;83.24
71573;BME280;59408;51.032;9.410;2022-08-03T00:55:52;99097.66;;;14.65;83.03
71573;BME280;59408;51.032;9.410;2022-08-03T00:58:18;99099.97;;;14.63;83.65
71573;BME280;59408;51.032;9.410;2022-08-03T01:00:45;99098.38;;;14.62;83.26
71573;BME280;59408;51.032;9.410;2022-08-03T01:03:12;99100.69;;;14.60;82.54
71573;BME280;59408;51.032;9.410;2022-08-03T01:05:43;99099.09;;;14.59;83.24
71573;BME280;59408;51.032;9.410;2022-08-03T01:08:18;99092.28;;;14.53;84.43
71573;BME280;59408;51.032;9.410;2022-08-03T01:10:56;99086.31;;;14.47;84.15
71573;BME280;59408;51.032;9.410;2022-08-03T01:13:30;99092.53;;;14.44;84.64
71573;BME280;59408;51.032;9.410;2022-08-03T01:16:31;99088.19;;;14.43;85.68
71573;BME280;59408;51.032;9.410;2022-08-03T01:19:14;99086.94;;;14.41;85.48
71573;BME280;59408;51.032;9.410;2022-08-03T01:21:53;99089.28;;;14.39;84.23
71573;BME280;59408;51.032;9.410;2022-08-03T01:24:33;99089.66;;;14.37;85.35
71573;BME280;59408;51.032;9.410;2022-08-03T01:27:08;99095.06;;;14.33;85.11
71573;BME280;59408;51.032;9.410;2022-08-03T01:29:59;99089.13;;;14.31;85.51
71573;BME280;59408;51.032;9.410;2022-08-03T01:32:32;99099.69;;;14.29;85.24
71573;BME280;59408;51.032;9.410;2022-08-03T01:35:25;99094.56;;;14.28;84.17
71573;BME280;59408;51.032;9.410;2022-08-03T01:37:56;99096.16;;;14.29;84.36
71573;BME280;59408;51.032;9.410;2022-08-03T01:40:24;99098.91;;;14.29;84.31
71573;BME280;59408;51.032;9.410;2022-08-03T01:42:53;99090.59;;;14.25;84.94
71573;BME280;59408;51.032;9.410;2022-08-03T01:45:23;99090.16;;;14.23;85.31
71573;BME280;59408;51.032;9.410;2022-08-03T01:47:51;99094.34;;;14.17;85.90
71573;BME280;59408;51.032;9.410;2022-08-03T01:50:22;99090.72;;;14.13;85.83
71573;BME280;59408;51.032;9.410;2022-08-03T01:52:50;99095.00;;;14.11;84.68
71573;BME280;59408;51.032;9.410;2022-08-03T01:55:19;99084.75;;;14.08;85.55
71573;BME280;59408;51.032;9.410;2022-08-03T01:57:48;99084.28;;;14.06;85.03
71573;BME280;59408;51.032;9.410;2022-08-03T02:00:34;99087.03;;;14.06;84.65
71573;BME280;59408;51.032;9.410;2022-08-03T02:03:04;99085.00;;;14.03;85.13
71573;BME280;59408;51.032;9.410;2022-08-03T02:05:31;99081.84;;;14.01;86.36
71573;BME280;59408;51.032;9.410;2022-08-03T02:07:59;99081.31;;;13.95;86.99
71573;BME280;59408;51.032;9.410;2022-08-03T02:10:27;99082.41;;;13.90;87.58
71573;BME280;59408;51.032;9.410;2022-08-03T02:13:02;99084.72;;;13.88;86.27
71573;BME280;59408;51.032;9.410;2022-08-03T02:15:33;99086.31;;;13.89;85.88
71573;BME280;59408;51.032;9.410;2022-08-03T02:18:02;99087.47;;;13.88;85.83
71573;BME280;59408;51.032;9.410;2022-08-03T02:20:32;99076.84;;;13.87;85.61
71573;BME280;59408;51.032;9.410;2022-08-03T02:22:58;99084.28;;;13.86;84.84
71573;BME280;59408;51.032;9.410;2022-08-03T02:25:26;99079.53;;;13.83;86.16
71573;BME280;59408;51.032;9.410;2022-08-03T02:27:57;99080.25;;;13.80;86.08
71573;BME280;59408;51.032;9.410;2022-08-03T02:30:28;99080.94;;;13.77;85.81
71573;BME280;59408;51.032;9.410;2022-08-03T02:32:58;99077.75;;;13.75;86.13
71573;BME280;59408;51.032;9.410;2022-08-03T02:35:28;99076.22;;;13.74;86.05
71573;BME280;59408;51.032;9.410;2022-08-03T02:37:59;99073.38;;;13.71;86.78
71573;BME280;59408;51.032;9.410;2022-08-03T02:40:27;99067.91;;;13.71;87.28
71573;BME280;59408;51.032;9.410;2022-08-03T02:42:57;99072.56;;;13.70;86.01
71573;BME280;59408;51.032;9.410;2022-08-03T02:45:26;99072.94;;;13.69;86.04
71573;BME280;59408;51.032;9.410;2022-08-03T02:47:58;99071.28;;;13.64;86.63
71573;BME280;59408;51.032;9.410;2022-08-03T02:50:27;99070.84;;;13.62;86.92
71573;BME280;59408;51.032;9.410;2022-08-03T02:52:56;99074.72;;;13.61;86.63
71573;BME280;59408;51.032;9.410;2022-08-03T02:55:25;99070.41;;;13.60;86.97
71573;BME280;59408;51.032;9.410;2022-08-03T02:57:51;99073.84;;;13.57;87.08
71573;BME280;59408;51.032;9.410;2022-08-03T03:00:19;99066.00;;;13.55;86.81
71573;BME280;59408;51.032;9.410;2022-08-03T03:02:56;99064.31;;;13.51;86.85
71573;BME280;59408;51.032;9.410;2022-08-03T03:05:24;99070.88;;;13.46;87.35
71573;BME280;59408;51.032;9.410;2022-08-03T03:08:12;99069.66;;;13.44;86.99
71573;BME280;59408;51.032;9.410;2022-08-03T03:10:46;99064.97;;;13.44;87.98
71573;BME280;59408;51.032;9.410;2022-08-03T03:13:20;99073.53;;;13.43;86.91
71573;BME280;59408;51.032;9.410;2022-08-03T03:15:47;99070.78;;;13.43;86.71
71573;BME280;59408;51.032;9.410;2022-08-03T03:18:16;99061.78;;;13.42;87.58
71573;BME280;59408;51.032;9.410;2022-08-03T03:20:50;99062.47;;;13.39;87.73
71573;BME280;59408;51.032;9.410;2022-08-03T03:23:19;99067.50;;;13.37;88.06
71573;BME280;59408;51.032;9.410;2022-08-03T03:25:47;99066.63;;;13.33;86.98
71573;BME280;59408;51.032;9.410;2022-08-03T03:28:14;99064.69;;;13.34;87.24
71573;BME280;59408;51.032;9.410;2022-08-03T03:30:41;99063.44;;;13.31;87.52
71573;BME280;59408;51.032;9.410;2022-08-03T03:33:08;99070.78;;;13.27;88.55
71573;BME280;59408;51.032;9.410;2022-08-03T03:35:35;99071.16;;;13.26;88.34
71573;BME280;59408;51.032;9.410;2022-08-03T03:38:06;99076.53;;;13.22;88.09
71573;BME280;59408;51.032;9.410;2022-08-03T03:40:34;99073.72;;;13.18;87.97
71573;BME280;59408;51.032;9.410;2022-08-03T03:43:01;99076.38;;;13.15;87.12
71573;BME280;59408;51.032;9.410;2022-08-03T03:45:28;99077.50;;;13.14;88.37
71573;BME280;59408;51.032;9.410;2022-08-03T03:47:58;99078.66;;;13.13;88.12
71573;BME280;59408;51.032;9.410;2022-08-03T03:50:25;99074.31;;;13.12;88.94
71573;BME280;59408;51.032;9.410;2022-08-03T03:52:52;99074.72;;;13.10;88.98
71573;BME280;59408;51.032;9.410;2022-08-03T03:55:20;99075.06;;;13.09;88.40
71573;BME280;59408;51.032;9.410;2022-08-03T03:57:47;99081.69;;;13.08;88.58
71573;BME280;59408;51.032;9.410;2022-08-03T04:00:16;99074.97;;;13.05;88.27
71573;BME280;59408;51.032;9.410;2022-08-03T04:02:43;99075.75;;;13.06;89.59
71573;BME280;59408;51.032;9.410;2022-08-03T04:05:09;99082.81;;;13.07;90.10
71573;BME280;59408;51.032;9.410;2022-08-03T04:07:45;99073.38;;;13.04;89.61
71573;BME280;59408;51.032;9.410;2022-08-03T04:10:16;99088.66;;;13.05;89.75
71573;BME280;59408;51.032;9.410;2022-08-03T04:12:46;99079.97;;;13.03;89.75
71573;BME280;59408;51.032;9.410;2022-08-03T04:15:17;99078.38;;;13.02;89.52
71573;BME280;59408;51.032;9.410;2022-08-03T04:17:47;99084.31;;;13.04;89.09
71573;BME280;59408;51.032;9.410;2022-08-03T04:20:15;99086.25;;;13.04;89.40
71573;BME280;59408;51.032;9.410;2022-08-03T04:22:45;99086.72;;;13.06;89.66
71573;BME280;59408;51.032;9.410;2022-08-03T04:25:15;99091.72;;;13.04;89.18
71573;BME280;59408;51.032;9.410;2022-08-03T04:27:45;99092.97;;;13.06;89.76
71573;BME280;59408;51.032;9.410;2022-08-03T04:30:35;99092.19;;;13.06;90.16
71573;BME280;59408;51.032;9.410;2022-08-03T04:33:03;99089.91;;;13.08;90.72
71573;BME280;59408;51.032;9.410;2022-08-03T04:35:32;99088.75;;;13.09;91.47
71573;BME280;59408;51.032;9.410;2022-08-03T04:38:20;99092.34;;;13.13;91.27
71573;BME280;59408;51.032;9.410;2022-08-03T04:40:51;99092.81;;;13.15;90.88
71573;BME280;59408;51.032;9.410;2022-08-03T04:43:21;99101.47;;;13.17;90.40
71573;BME280;59408;51.032;9.410;2022-08-03T04:45:49;99103.91;;;13.22;91.22
71573;BME280;59408;51.032;9.410;2022-08-03T04:48:16;99103.66;;;13.27;91.54
71573;BME280;59408;51.032;9.410;2022-08-03T04:50:45;99107.63;;;13.30;90.95
71573;BME280;59408;51.032;9.410;2022-08-03T04:53:11;99103.84;;;13.34;90.89
71573;BME280;59408;51.032;9.410;2022-08-03T04:55:38;99101.63;;;13.40;89.79
71573;BME280;59408;51.032;9.410;2022-08-03T04:58:05;99102.16;;;13.45;90.61
71573;BME280;59408;51.032;9.410;2022-08-03T05:00:33;99105.78;;;13.49;90.81
71573;BME280;59408;51.032;9.410;2022-08-03T05:03:00;99101.97;;;13.54;88.99
71573;BME280;59408;51.032;9.410;2022-08-03T05:05:27;99102.13;;;13.61;87.46
71573;BME280;59408;51.032;9.410;2022-08-03T05:08:13;99101.94;;;13.70;87.46
71573;BME280;59408;51.032;9.410;2022-08-03T05:10:40;99103.25;;;13.76;88.49
71573;BME280;59408;51.032;9.410;2022-08-03T05:13:06;99101.03;;;13.81;87.74
71573;BME280;59408;51.032;9.410;2022-08-03T05:15:34;99092.94;;;13.88;86.92
71573;BME280;59408;51.032;9.410;2022-08-03T05:18:08;99095.84;;;13.95;87.95
71573;BME280;59408;51.032;9.410;2022-08-03T05:20:39;99103.06;;;14.04;87.62
71573;BME280;59408;51.032;9.410;2022-08-03T05:23:06;99095.00;;;14.11;87.76
71573;BME280;59408;51.032;9.410;2022-08-03T05:25:33;99100.25;;;14.19;86.60
71573;BME280;59408;51.032;9.410;2022-08-03T05:27:59;99099.69;;;14.29;86.16
71573;BME280;59408;51.032;9.410;2022-08-03T05:30:26;99096.28;;;14.36;85.07
71573;BME280;59408;51.032;9.410;2022-08-03T05:33:02;99094.53;;;14.47;84.90
71573;BME280;59408;51.032;9.410;2022-08-03T05:35:29;99103.44;;;14.60;84.44
71573;BME280;59408;51.032;9.410;2022-08-03T05:38:16;99090.69;;;14.71;84.05
71573;BME280;59408;51.032;9.410;2022-08-03T05:40:53;99102.66;;;14.82;82.84
71573;BME280;59408;51.032;9.410;2022-08-03T05:43:40;99093.06;;;14.95;82.52
71573;BME280;59408;51.032;9.410;2022-08-03T05:46:06;99090.94;;;15.08;81.96
71573;BME280;59408;51.032;9.410;2022-08-03T05:48:39;99091.16;;;15.22;81.11
71573;BME280;59408;51.032;9.410;2022-08-03T05:51:06;99100.44;;;15.37;79.57
71573;BME280;59408;51.032;9.410;2022-08-03T05:53:34;99105.00;;;15.52;78.58
71573;BME280;59408;51.032;9.410;2022-08-03T05:56:00;99099.34;;;15.68;79.44
71573;BME280;59408;51.032;9.410;2022-08-03T05:58:40;99101.97;;;15.83;77.95
71573;BME280;59408;51.032;9.410;2022-08-03T06:01:07;99114.72;;;15.99;76.70
71573;BME280;59408;51.032;9.410;2022-08-03T06:03:34;99109.00;;;16.11;77.53
71573;BME280;59408;51.032;9.410;2022-08-03T06:06:01;99099.38;;;16.28;76.81
71573;BME280;59408;51.032;9.410;2022-08-03T06:08:28;99106.63;;;16.43;76.41
71573;BME280;59408;51.032;9.410;2022-08-03T06:10:55;99113.47;;;16.56;76.08
71573;BME280;59408;51.032;9.410;2022-08-03T06:13:21;99108.56;;;16.72;73.76
71573;BME280;59408;51.032;9.410;2022-08-03T06:15:48;99111.09;;;16.91;72.61
71573;BME280;59408;51.032;9.410;2022-08-03T06:18:14;99113.97;;;17.06;73.86
71573;BME280;59408;51.032;9.410;2022-08-03T06:20:41;99109.41;;;17.24;74.47
71573;BME280;59408;51.032;9.410;2022-08-03T06:23:09;99110.72;;;17.37;73.06
71573;BME280;59408;51.032;9.410;2022-08-03T06:25:43;99124.25;;;17.56;72.19
71573;BME280;59408;51.032;9.410;2022-08-03T06:28:11;99120.06;;;17.77;71.25
71573;BME280;59408;51.032;9.410;2022-08-03T06:30:58;99123.34;;;17.96;72.84
71573;BME280;59408;51.032;9.410;2022-08-03T06:33:24;99119.88;;;18.14;70.26
71573;BME280;59408;51.032;9.410;2022-08-03T06:36:11;99119.97;;;18.35;69.31
71573;BME280;59408;51.032;9.410;2022-08-03T06:38:39;99117.69;;;18.51;69.98
71573;BME280;59408;51.032;9.410;2022-08-03T06:41:05;99119.75;;;18.72;68.31
71573;BME280;59408;51.032;9.410;2022-08-03T06:43:32;99118.59;;;18.91;67.35
71573;BME280;59408;51.032;9.410;2022-08-03T06:46:01;99122.56;;;19.07;68.09
71573;BME280;59408;51.032;9.410;2022-08-03T06:48:28;99124.94;;;19.23;66.99
71573;BME280;59408;51.032;9.410;2022-08-03T06:50:54;99122.63;;;19.39;65.39
71573;BME280;59408;51.032;9.410;2022-08-03T06:53:30;99116.69;;;19.55;65.65
71573;BME280;59408;51.032;9.410;2022-08-03T06:55:59;99112.69;;;19.74;66.40
71573;BME280;59408;51.032;9.410;2022-08-03T06:58:25;99113.06;;;19.90;64.26
71573;BME280;59408;51.032;9.410;2022-08-03T07:00:52;99114.56;;;20.12;64.87
71573;BME280;59408;51.032;9.410;2022-08-03T07:03:18;99111.75;;;20.34;62.87
71573;BME280;59408;51.032;9.410;2022-08-03T07:05:45;99110.06;;;20.54;60.41
71573;BME280;59408;51.032;9.410;2022-08-03T07:08:12;99119.84;;;20.76;61.79
71573;BME280;59408;51.032;9.410;2022-08-03T07:10:38;99124.09;;;20.98;62.16
71573;BME280;59408;51.032;9.410;2022-08-03T07:13:06;99119.19;;;21.20;59.93
71573;BME280;59408;51.032;9.410;2022-08-03T07:15:33;99121.44;;;21.36;58.45
71573;BME280;59408;51.032;9.410;2022-08-03T07:18:20;99120.88;;;21.55;57.77
71573;BME280;59408;51.032;9.410;2022-08-03T07:20:55;99119.09;;;21.79;58.50
71573;BME280;59408;51.032;9.410;2022-08-03T07:23:21;99120.94;;;21.93;56.65
71573;BME280;59408;51.032;9.410;2022-08-03T07:25:48;99120.25;;;22.19;58.44
71573;BME280;59408;51.032;9.410;2022-08-03T07:28:16;99127.47;;;22.43;57.30
71573;BME280;59408;51.032;9.410;2022-08-03T07:30:42;99128.16;;;22.55;56.17
71573;BME280;59408;51.032;9.410;2022-08-03T07:33:09;99123.94;;;22.73;56.68
71573;BME280;59408;51.032;9.410;2022-08-03T07:35:36;99121.31;;;22.90;57.50
71573;BME280;59408;51.032;9.410;2022-08-03T07:38:02;99113.88;;;23.10;55.57
71573;BME280;59408;51.032;9.410;2022-08-03T07:40:29;99121.13;;;23.31;55.50
71573;BME280;59408;51.032;9.410;2022-08-03T07:42:57;99123.97;;;23.50;55.61
71573;BME280;59408;51.032;9.410;2022-08-03T07:45:25;99127.97;;;23.73;54.08
71573;BME280;59408;51.032;9.410;2022-08-03T07:47:53;99129.47;;;24.01;53.33
71573;BME280;59408;51.032;9.410;2022-08-03T07:50:20;99125.38;;;24.05;53.22
71573;BME280;59408;51.032;9.410;2022-08-03T07:52:48;99123.13;;;24.20;54.30
71573;BME280;59408;51.032;9.410;2022-08-03T07:55:37;99124.47;;;24.31;51.61
71573;BME280;59408;51.032;9.410;2022-08-03T07:58:06;99123.63;;;24.34;53.42
71573;BME280;59408;51.032;9.410;2022-08-03T08:00:35;99120.84;;;24.34;50.78
71573;BME280;59408;51.032;9.410;2022-08-03T08:03:02;99117.41;;;24.47;50.19
71573;BME280;59408;51.032;9.410;2022-08-03T08:05:29;99118.81;;;24.75;52.16
71573;BME280;59408;51.032;9.410;2022-08-03T08:07:55;99117.34;;;24.86;49.11
71573;BME280;59408;51.032;9.410;2022-08-03T08:10:22;99111.44;;;25.00;48.67
71573;BME280;59408;51.032;9.410;2022-08-03T08:12:49;99108.66;;;25.17;49.45
71573;BME280;59408;51.032;9.410;2022-08-03T08:15:16;99120.13;;;25.38;47.83
71573;BME280;59408;51.032;9.410;2022-08-03T08:17:46;99108.25;;;25.67;47.61
71573;BME280;59408;51.032;9.410;2022-08-03T08:20:16;99112.13;;;26.02;50.11
71573;BME280;59408;51.032;9.410;2022-08-03T08:22:56;99116.78;;;26.34;46.36
71573;BME280;59408;51.032;9.410;2022-08-03T08:25:26;99120.16;;;26.58;46.61
71573;BME280;59408;51.032;9.410;2022-08-03T08:27:53;99115.69;;;26.73;45.58
71573;BME280;59408;51.032;9.410;2022-08-03T08:30:40;99113.91;;;27.04;43.70
71573;BME280;59408;51.032;9.410;2022-08-03T08:33:08;99113.91;;;27.29;43.67
71573;BME280;59408;51.032;9.410;2022-08-03T08:35:48;99124.78;;;27.02;44.07
71573;BME280;59408;51.032;9.410;2022-08-03T08:38:14;99105.06;;;27.18;43.01
71573;BME280;59408;51.032;9.410;2022-08-03T08:40:41;99115.34;;;27.34;42.90
71573;BME280;59408;51.032;9.410;2022-08-03T08:43:08;99109.66;;;27.72;41.94
71573;BME280;59408;51.032;9.410;2022-08-03T08:45:34;99108.28;;;27.89;39.95
71573;BME280;59408;51.032;9.410;2022-08-03T08:48:02;99104.28;;;28.12;40.76
71573;BME280;59408;51.032;9.410;2022-08-03T08:50:36;99108.91;;;28.28;39.89
71573;BME280;59408;51.032;9.410;2022-08-03T08:53:06;99106.72;;;28.32;40.50
71573;BME280;59408;51.032;9.410;2022-08-03T08:55:37;99106.56;;;28.48;37.00
71573;BME280;59408;51.032;9.410;2022-08-03T08:58:25;99103.22;;;28.62;37.40
71573;BME280;59408;51.032;9.410;2022-08-03T09:00:54;99096.69;;;28.96;37.67
71573;BME280;59408;51.032;9.410;2022-08-03T09:03:20;99101.16;;;29.25;36.44
71573;BME280;59408;51.032;9.410;2022-08-03T09:05:58;99096.34;;;29.34;36.00
71573;BME280;59408;51.032;9.410;2022-08-03T09:08:25;99097.19;;;29.53;36.19
71573;BME280;59408;51.032;9.410;2022-08-03T09:10:51;99099.25;;;29.89;35.57
71573;BME280;59408;51.032;9.410;2022-08-03T09:13:18;99096.78;;;30.09;35.04
71573;BME280;59408;51.032;9.410;2022-08-03T09:15:45;99095.50;;;30.19;35.00
71573;BME280;59408;51.032;9.410;2022-08-03T09:18:28;99091.44;;;30.30;33.54
71573;BME280;59408;51.032;9.410;2022-08-03T09:21:11;99093.22;;;30.60;34.83
71573;BME280;59408;51.032;9.410;2022-08-03T09:23:58;99092.97;;;30.49;34.39
71573;BME280;59408;51.032;9.410;2022-08-03T09:26:31;99093.22;;;30.69;33.43
71573;BME280;59408;51.032;9.410;2022-08-03T09:29:01;99078.66;;;31.13;32.23
71573;BME280;59408;51.032;9.410;2022-08-03T09:31:39;99085.84;;;30.81;31.91
71573;BME280;59408;51.032;9.410;2022-08-03T09:34:10;99084.59;;;30.12;32.99
71573;BME280;59408;51.032;9.410;2022-08-03T09:36:40;99087.19;;;30.34;33.96
71573;BME280;59408;51.032;9.410;2022-08-03T09:39:08;99082.66;;;30.37;32.73
71573;BME280;59408;51.032;9.410;2022-08-03T09:41:35;99093.09;;;30.64;33.15
71573;BME280;59408;51.032;9.410;2022-08-03T09:44:02;99086.63;;;30.81;32.27
71573;BME280;59408;51.032;9.410;2022-08-03T09:46:29;99078.44;;;31.25;33.21
71573;BME280;59408;51.032;9.410;2022-08-03T09:49:08;99088.13;;;31.57;31.91
71573;BME280;59408;51.032;9.410;2022-08-03T09:51:39;99086.25;;;31.54;32.86
71573;BME280;59408;51.032;9.410;2022-08-03T09:54:26;99081.75;;;31.24;33.75
71573;BME280;59408;51.032;9.410;2022-08-03T09:56:55;99084.84;;;30.93;32.30
71573;BME280;59408;51.032;9.410;2022-08-03T09:59:24;99085.06;;;31.13;33.41
71573;BME280;59408;51.032;9.410;2022-08-03T10:01:52;99078.88;;;31.57;32.87
71573;BME280;59408;51.032;9.410;2022-08-03T10:04:19;99079.84;;;31.54;31.38
71573;BME280;59408;51.032;9.410;2022-08-03T10:07:01;99078.88;;;31.81;31.31
71573;BME280;59408;51.032;9.410;2022-08-03T10:09:28;99076.41;;;32.12;31.02
71573;BME280;59408;51.032;9.410;2022-08-03T10:11:55;99077.19;;;32.13;31.04
71573;BME280;59408;51.032;9.410;2022-08-03T10:14:22;99074.56;;;32.09;31.94
71573;BME280;59408;51.032;9.410;2022-08-03T10:16:49;99071.50;;;32.22;30.14
71573;BME280;59408;51.032;9.410;2022-08-03T10:19:16;99072.97;;;31.93;32.49
71573;BME280;59408;51.032;9.410;2022-08-03T10:21:48;99063.50;;;32.35;29.57
71573;BME280;59408;51.032;9.410;2022-08-03T10:24:16;99053.16;;;32.61;31.50
71573;BME280;59408;51.032;9.410;2022-08-03T10:26:47;99064.84;;;32.84;30.70
71573;BME280;59408;51.032;9.410;2022-08-03T10:29:20;99061.50;;;33.00;30.85
71573;BME280;59408;51.032;9.410;2022-08-03T10:31:48;99053.97;;;33.11;28.25
71573;BME280;59408;51.032;9.410;2022-08-03T10:34:25;99050.25;;;33.05;28.82
71573;BME280;59408;51.032;9.410;2022-08-03T10:36:56;99051.19;;;33.17;29.62
71573;BME280;59408;51.032;9.410;2022-08-03T10:39:27;99036.69;;;33.09;27.88
71573;BME280;59408;51.032;9.410;2022-08-03T10:41:55;99046.22;;;33.67;28.74
71573;BME280;59408;51.032;9.410;2022-08-03T10:44:25;99042.63;;;33.87;30.61
71573;BME280;59408;51.032;9.410;2022-08-03T10:46:55;99036.38;;;34.29;29.08
71573;BME280;59408;51.032;9.410;2022-08-03T10:49:23;99040.94;;;34.52;28.12
71573;BME280;59408;51.032;9.410;2022-08-03T10:52:01;99030.13;;;34.82;28.45
71573;BME280;59408;51.032;9.410;2022-08-03T10:54:49;99036.66;;;34.94;27.29
71573;BME280;59408;51.032;9.410;2022-08-03T10:57:47;99032.91;;;34.45;27.77
71573;BME280;59408;51.032;9.410;2022-08-03T11:00:16;99034.19;;;34.18;28.00
71573;BME280;59408;51.032;9.410;2022-08-03T11:03:09;99033.50;;;33.57;28.58
71573;BME280;59408;51.032;9.410;2022-08-03T11:05:39;99026.59;;;34.04;27.42
71573;BME280;59408;51.032;9.410;2022-08-03T11:08:25;99030.34;;;34.21;26.67
71573;BME280;59408;51.032;9.410;2022-08-03T11:11:25;99026.28;;;34.54;26.89
71573;BME280;59408;51.032;9.410;2022-08-03T11:13:56;99012.41;;;34.61;26.50
71573;BME280;59408;51.032;9.410;2022-08-03T11:16:26;99025.00;;;35.23;27.99
71573;BME280;59408;51.032;9.410;2022-08-03T11:18:57;99026.28;;;34.85;27.09
71573;BME280;59408;51.032;9.410;2022-08-03T11:21:53;99021.63;;;34.88;26.67
71573;BME280;59408;51.032;9.410;2022-08-03T11:27:29;99007.34;;;35.08;26.70
71573;BME280;59408;51.032;9.410;2022-08-03T11:29:58;99006.41;;;35.22;27.73
71573;BME280;59408;51.032;9.410;2022-08-03T11:32:56;99010.28;;;35.25;25.99
71573;BME280;59408;51.032;9.410;2022-08-03T11:35:24;99009.38;;;35.08;26.77
71573;BME280;59408;51.032;9.410;2022-08-03T11:38:05;99003.94;;;34.98;25.56
71573;BME280;59408;51.032;9.410;2022-08-03T11:40:37;99007.84;;;34.33;27.86
71573;BME280;59408;51.032;9.410;2022-08-03T11:43:07;98995.53;;;33.89;26.47
71573;BME280;59408;51.032;9.410;2022-08-03T11:45:35;98994.81;;;34.52;28.09
71573;BME280;59408;51.032;9.410;2022-08-03T11:48:15;98999.13;;;34.73;26.50
71573;BME280;59408;51.032;9.410;2022-08-03T11:50:42;99003.34;;;34.83;25.47
71573;BME280;59408;51.032;9.410;2022-08-03T11:53:13;99003.59;;;34.85;27.85
71573;BME280;59408;51.032;9.410;2022-08-03T11:55:40;99010.84;;;34.92;27.03
71573;BME280;59408;51.032;9.410;2022-08-03T11:58:16;98991.66;;;35.18;26.13
71573;BME280;59408;51.032;9.410;2022-08-03T12:01:04;98999.03;;;35.53;27.10
71573;BME280;59408;51.032;9.410;2022-08-03T12:03:32;98994.28;;;35.98;24.77
71573;BME280;59408;51.032;9.410;2022-08-03T12:06:00;98992.53;;;36.51;25.45
71573;BME280;59408;51.032;9.410;2022-08-03T12:08:30;98998.53;;;35.49;25.03
71573;BME280;59408;51.032;9.410;2022-08-03T12:10:59;98993.91;;;35.62;25.11
71573;BME280;59408;51.032;9.410;2022-08-03T12:13:35;98994.28;;;35.98;24.65
71573;BME280;59408;51.032;9.410;2022-08-03T12:16:23;98993.75;;;35.77;25.08
71573;BME280;59408;51.032;9.410;2022-08-03T12:18:54;98992.84;;;35.00;26.60
71573;BME280;59408;51.032;9.410;2022-08-03T12:21:20;98985.13;;;35.60;26.67
71573;BME280;59408;51.032;9.410;2022-08-03T12:23:47;98984.19;;;35.91;26.35
71573;BME280;59408;51.032;9.410;2022-08-03T12:26:14;98983.47;;;36.24;24.74
71573;BME280;59408;51.032;9.410;2022-08-03T12:28:47;98980.91;;;36.37;25.31
71573;BME280;59408;51.032;9.410;2022-08-03T12:31:15;98987.34;;;36.49;25.63
71573;BME280;59408;51.032;9.410;2022-08-03T12:34:00;98980.59;;;36.91;25.73
71573;BME280;59408;51.032;9.410;2022-08-03T12:36:28;98971.59;;;37.56;24.93
71573;BME280;59408;51.032;9.410;2022-08-03T12:38:56;98974.63;;;36.95;24.43
71573;BME280;59408;51.032;9.410;2022-08-03T12:41:28;98972.91;;;36.69;24.08
71573;BME280;59408;51.032;9.410;2022-08-03T12:43:56;98973.13;;;36.55;26.20
71573;BME280;59408;51.032;9.410;2022-08-03T12:46:29;98974.91;;;36.86;24.12
71573;BME280;59408;51.032;9.410;2022-08-03T12:49:01;98965.56;;;37.13;23.95
71573;BME280;59408;51.032;9.410;2022-08-03T12:51:30;98964.00;;;37.01;23.28
71573;BME280;59408;51.032;9.410;2022-08-03T12:54:22;98968.44;;;36.96;24.95
71573;BME280;59408;51.032;9.410;2022-08-03T12:56:57;98961.69;;;37.63;24.11
71573;BME280;59408;51.032;9.410;2022-08-03T12:59:25;98964.22;;;37.77;22.90
71573;BME280;59408;51.032;9.410;2022-08-03T13:02:01;98961.19;;;37.64;23.15
71573;BME280;59408;51.032;9.410;2022-08-03T13:04:35;98970.81;;;36.75;23.60
71573;BME280;59408;51.032;9.410;2022-08-03T13:07:03;98967.63;;;37.07;23.87
71573;BME280;59408;51.032;9.410;2022-08-03T13:09:40;98956.47;;;37.20;24.70
71573;BME280;59408;51.032;9.410;2022-08-03T13:12:08;98960.94;;;36.93;23.67
71573;BME280;59408;51.032;9.410;2022-08-03T13:14:37;98958.91;;;36.77;23.75
71573;BME280;59408;51.032;9.410;2022-08-03T13:17:25;98962.03;;;36.68;24.14
71573;BME280;59408;51.032;9.410;2022-08-03T13:19:53;98958.16;;;36.60;23.11
71573;BME280;59408;51.032;9.410;2022-08-03T13:22:21;98955.28;;;36.76;22.94
71573;BME280;59408;51.032;9.410;2022-08-03T13:24:50;98953.78;;;36.42;24.33